sensor_id;sensor_type;location;lat;lon;timestamp;temperature;humidity
25092;DHT22;13082;52.374;4.946;2023-06-26T00:00:45;25.70;99.90
25092;DHT22;13082;52.374;4.946;2023-06-26T00:03:13;25.70;99.90
25092;DHT22;13082;52.374;4.946;2023-06-26T00:05:41;25.70;99.90
25092;DHT22;13082;52.374;4.946;2023-06-26T00:08:07;25.70;99.90
25092;DHT22;13082;52.374;4.946;2023-06-26T00:10:34;25.70;99.90
25092;DHT22;13082;52.374;4.946;2023-06-26T00:12:59;25.80;99.90
25092;DHT22;13082;52.374;4.946;2023-06-26T00:15:25;25.90;99.90
25092;DHT22;13082;52.374;4.946;2023-06-26T00:17:51;25.90;99.90
25092;DHT22;13082;52.374;4.946;2023-06-26T00:20:17;25.80;99.90
25092;DHT22;13082;52.374;4.946;2023-06-26T00:22:44;25.80;99.90
25092;DHT22;13082;52.374;4.946;2023-06-26T00:25:10;25.80;99.90
25092;DHT22;13082;52.374;4.946;2023-06-26T00:27:36;25.70;99.90
25092;DHT22;13082;52.374;4.946;2023-06-26T00:30:01;25.70;99.90
25092;DHT22;13082;52.374;4.946;2023-06-26T00:32:27;25.70;99.90
25092;DHT22;13082;52.374;4.946;2023-06-26T00:34:53;25.70;99.90
25092;DHT22;13082;52.374;4.946;2023-06-26T00:37:18;25.60;99.90
25092;DHT22;13082;52.374;4.946;2023-06-26T00:39:44;25.60;99.90
25092;DHT22;13082;52.374;4.946;2023-06-26T00:42:09;25.60;99.90
25092;DHT22;13082;52.374;4.946;2023-06-26T00:44:35;25.50;99.90
25092;DHT22;13082;52.374;4.946;2023-06-26T00:47:01;25.30;99.90
25092;DHT22;13082;52.374;4.946;2023-06-26T00:49:27;25.20;99.90
25092;DHT22;13082;52.374;4.946;2023-06-26T00:51:53;25.00;99.90
25092;DHT22;13082;52.374;4.946;2023-06-26T00:54:20;25.00;99.90
25092;DHT22;13082;52.374;4.946;2023-06-26T00:56:48;24.90;99.90
25092;DHT22;13082;52.374;4.946;2023-06-26T00:59:14;24.70;99.90
25092;DHT22;13082;52.374;4.946;2023-06-26T01:01:39;24.50;99.90
25092;DHT22;13082;52.374;4.946;2023-06-26T01:04:05;24.50;99.90
25092;DHT22;13082;52.374;4.946;2023-06-26T01:06:33;24.50;99.90
25092;DHT22;13082;52.374;4.946;2023-06-26T01:09:02;24.50;99.90
25092;DHT22;13082;52.374;4.946;2023-06-26T01:11:28;24.40;99.90
25092;DHT22;13082;52.374;4.946;2023-06-26T01:13:54;24.00;99.90
25092;DHT22;13082;52.374;4.946;2023-06-26T01:16:23;23.70;99.90
25092;DHT22;13082;52.374;4.946;2023-06-26T01:18:48;23.50;99.90
25092;DHT22;13082;52.374;4.946;2023-06-26T01:21:15;23.40;99.90
25092;DHT22;13082;52.374;4.946;2023-06-26T01:24:07;23.30;99.90
25092;DHT22;13082;52.374;4.946;2023-06-26T01:26:36;23.20;99.90
25092;DHT22;13082;52.374;4.946;2023-06-26T01:29:04;23.00;99.90
25092;DHT22;13082;52.374;4.946;2023-06-26T01:31:31;23.00;99.90
25092;DHT22;13082;52.374;4.946;2023-06-26T01:34:00;23.00;99.90
25092;DHT22;13082;52.374;4.946;2023-06-26T01:36:26;22.90;99.90
25092;DHT22;13082;52.374;4.946;2023-06-26T01:38:52;22.90;99.90
25092;DHT22;13082;52.374;4.946;2023-06-26T01:41:18;22.90;99.90
25092;DHT22;13082;52.374;4.946;2023-06-26T01:49:25;22.90;99.90
25092;DHT22;13082;52.374;4.946;2023-06-26T01:52:46;22.90;99.90
25092;DHT22;13082;52.374;4.946;2023-06-26T01:54:55;22.70;99.90
25092;DHT22;13082;52.374;4.946;2023-06-26T01:57:22;22.60;99.90
25092;DHT22;13082;52.374;4.946;2023-06-26T01:59:50;22.60;99.90
25092;DHT22;13082;52.374;4.946;2023-06-26T02:02:16;22.50;99.90
25092;DHT22;13082;52.374;4.946;2023-06-26T02:04:42;22.40;99.90
25092;DHT22;13082;52.374;4.946;2023-06-26T02:07:07;22.40;99.90
25092;DHT22;13082;52.374;4.946;2023-06-26T02:09:35;22.30;99.90
25092;DHT22;13082;52.374;4.946;2023-06-26T02:12:00;22.30;99.90
25092;DHT22;13082;52.374;4.946;2023-06-26T02:14:26;22.40;99.90
25092;DHT22;13082;52.374;4.946;2023-06-26T02:16:51;22.30;99.90
25092;DHT22;13082;52.374;4.946;2023-06-26T02:19:17;22.20;99.90
25092;DHT22;13082;52.374;4.946;2023-06-26T02:21:50;22.30;99.90
25092;DHT22;13082;52.374;4.946;2023-06-26T02:24:16;22.20;99.90
25092;DHT22;13082;52.374;4.946;2023-06-26T02:26:42;22.00;99.90
25092;DHT22;13082;52.374;4.946;2023-06-26T02:29:07;21.90;99.90
25092;DHT22;13082;52.374;4.946;2023-06-26T02:31:33;21.90;99.90
25092;DHT22;13082;52.374;4.946;2023-06-26T02:33:58;21.90;99.90
25092;DHT22;13082;52.374;4.946;2023-06-26T02:36:24;21.80;99.90
25092;DHT22;13082;52.374;4.946;2023-06-26T02:38:49;21.80;99.90
25092;DHT22;13082;52.374;4.946;2023-06-26T02:41:15;21.80;99.90
25092;DHT22;13082;52.374;4.946;2023-06-26T02:43:40;21.70;99.90
25092;DHT22;13082;52.374;4.946;2023-06-26T02:46:06;21.60;99.90
25092;DHT22;13082;52.374;4.946;2023-06-26T02:48:33;21.70;99.90
25092;DHT22;13082;52.374;4.946;2023-06-26T02:50:59;21.60;99.90
25092;DHT22;13082;52.374;4.946;2023-06-26T02:53:25;21.60;99.90
25092;DHT22;13082;52.374;4.946;2023-06-26T02:55:51;21.60;99.90
25092;DHT22;13082;52.374;4.946;2023-06-26T02:58:17;21.60;99.90
25092;DHT22;13082;52.374;4.946;2023-06-26T03:00:42;21.70;99.90
25092;DHT22;13082;52.374;4.946;2023-06-26T03:03:08;21.70;99.90
25092;DHT22;13082;52.374;4.946;2023-06-26T03:05:34;21.60;99.90
25092;DHT22;13082;52.374;4.946;2023-06-26T03:07:59;21.60;99.90
25092;DHT22;13082;52.374;4.946;2023-06-26T03:10:25;21.70;99.90
25092;DHT22;13082;52.374;4.946;2023-06-26T03:12:51;21.90;99.90
25092;DHT22;13082;52.374;4.946;2023-06-26T03:15:17;22.00;99.90
25092;DHT22;13082;52.374;4.946;2023-06-26T03:17:44;22.00;99.90
25092;DHT22;13082;52.374;4.946;2023-06-26T03:20:10;22.00;99.90
25092;DHT22;13082;52.374;4.946;2023-06-26T03:22:36;21.80;99.90
25092;DHT22;13082;52.374;4.946;2023-06-26T03:25:02;21.60;99.90
25092;DHT22;13082;52.374;4.946;2023-06-26T03:27:28;21.60;99.90
25092;DHT22;13082;52.374;4.946;2023-06-26T03:29:54;21.50;99.90
25092;DHT22;13082;52.374;4.946;2023-06-26T03:32:20;21.60;99.90
25092;DHT22;13082;52.374;4.946;2023-06-26T03:34:45;21.70;99.90
25092;DHT22;13082;52.374;4.946;2023-06-26T03:37:11;21.60;99.90
25092;DHT22;13082;52.374;4.946;2023-06-26T03:39:38;21.60;99.90
25092;DHT22;13082;52.374;4.946;2023-06-26T03:42:04;21.70;99.90
25092;DHT22;13082;52.374;4.946;2023-06-26T03:44:30;21.60;99.90
25092;DHT22;13082;52.374;4.946;2023-06-26T03:46:56;21.60;99.90
25092;DHT22;13082;52.374;4.946;2023-06-26T03:49:21;21.60;99.90
25092;DHT22;13082;52.374;4.946;2023-06-26T03:51:47;21.50;99.90
25092;DHT22;13082;52.374;4.946;2023-06-26T03:54:12;21.40;99.90
25092;DHT22;13082;52.374;4.946;2023-06-26T03:56:38;21.40;99.90
25092;DHT22;13082;52.374;4.946;2023-06-26T03:59:04;21.40;99.90
25092;DHT22;13082;52.374;4.946;2023-06-26T04:01:29;21.60;99.90
25092;DHT22;13082;52.374;4.946;2023-06-26T04:03:55;21.80;99.90
25092;DHT22;13082;52.374;4.946;2023-06-26T04:06:21;21.80;99.90
25092;DHT22;13082;52.374;4.946;2023-06-26T04:08:46;21.90;99.90
25092;DHT22;13082;52.374;4.946;2023-06-26T04:11:13;21.90;99.90
25092;DHT22;13082;52.374;4.946;2023-06-26T04:13:38;21.70;99.90
25092;DHT22;13082;52.374;4.946;2023-06-26T04:16:04;21.60;99.90
25092;DHT22;13082;52.374;4.946;2023-06-26T04:18:31;21.60;99.90
25092;DHT22;13082;52.374;4.946;2023-06-26T04:21:05;21.50;99.90
25092;DHT22;13082;52.374;4.946;2023-06-26T04:23:34;21.40;99.90
25092;DHT22;13082;52.374;4.946;2023-06-26T04:26:00;21.50;99.90
25092;DHT22;13082;52.374;4.946;2023-06-26T04:28:26;21.50;99.90
25092;DHT22;13082;52.374;4.946;2023-06-26T04:30:51;21.60;99.90
25092;DHT22;13082;52.374;4.946;2023-06-26T04:33:17;21.50;99.90
25092;DHT22;13082;52.374;4.946;2023-06-26T04:35:42;21.60;99.90
25092;DHT22;13082;52.374;4.946;2023-06-26T04:38:16;21.40;99.90
25092;DHT22;13082;52.374;4.946;2023-06-26T04:40:41;21.40;99.90
25092;DHT22;13082;52.374;4.946;2023-06-26T04:43:07;21.40;99.90
25092;DHT22;13082;52.374;4.946;2023-06-26T04:45:33;21.30;99.90
25092;DHT22;13082;52.374;4.946;2023-06-26T04:47:58;21.30;99.90
25092;DHT22;13082;52.374;4.946;2023-06-26T04:50:25;21.50;99.90
25092;DHT22;13082;52.374;4.946;2023-06-26T04:52:52;21.50;99.90
25092;DHT22;13082;52.374;4.946;2023-06-26T04:55:18;21.60;99.90
25092;DHT22;13082;52.374;4.946;2023-06-26T04:57:47;21.50;99.90
25092;DHT22;13082;52.374;4.946;2023-06-26T05:00:13;21.50;99.90
25092;DHT22;13082;52.374;4.946;2023-06-26T05:02:39;21.50;99.90
25092;DHT22;13082;52.374;4.946;2023-06-26T05:05:05;21.50;99.90
25092;DHT22;13082;52.374;4.946;2023-06-26T05:07:31;21.40;99.90
25092;DHT22;13082;52.374;4.946;2023-06-26T05:09:56;21.40;99.90
25092;DHT22;13082;52.374;4.946;2023-06-26T05:12:22;21.40;99.90
25092;DHT22;13082;52.374;4.946;2023-06-26T05:14:47;21.40;99.90
25092;DHT22;13082;52.374;4.946;2023-06-26T05:17:16;21.50;99.90
25092;DHT22;13082;52.374;4.946;2023-06-26T05:19:41;21.60;99.90
25092;DHT22;13082;52.374;4.946;2023-06-26T05:22:07;21.60;99.90
25092;DHT22;13082;52.374;4.946;2023-06-26T05:24:38;21.70;99.90
25092;DHT22;13082;52.374;4.946;2023-06-26T05:27:04;21.60;99.90
25092;DHT22;13082;52.374;4.946;2023-06-26T05:29:31;21.60;99.90
25092;DHT22;13082;52.374;4.946;2023-06-26T05:31:57;21.60;99.90
25092;DHT22;13082;52.374;4.946;2023-06-26T05:34:24;21.70;99.90
25092;DHT22;13082;52.374;4.946;2023-06-26T05:36:55;21.70;99.90
25092;DHT22;13082;52.374;4.946;2023-06-26T05:39:22;21.60;99.90
25092;DHT22;13082;52.374;4.946;2023-06-26T05:41:48;21.70;99.90
25092;DHT22;13082;52.374;4.946;2023-06-26T05:44:14;21.50;99.90
25092;DHT22;13082;52.374;4.946;2023-06-26T05:46:40;21.50;99.90
25092;DHT22;13082;52.374;4.946;2023-06-26T05:49:05;21.40;99.90
25092;DHT22;13082;52.374;4.946;2023-06-26T05:51:31;21.30;99.90
25092;DHT22;13082;52.374;4.946;2023-06-26T05:53:57;21.20;99.90
25092;DHT22;13082;52.374;4.946;2023-06-26T05:56:23;21.20;99.90
25092;DHT22;13082;52.374;4.946;2023-06-26T05:58:50;21.20;99.90
25092;DHT22;13082;52.374;4.946;2023-06-26T06:01:16;21.10;99.90
25092;DHT22;13082;52.374;4.946;2023-06-26T06:03:41;21.20;99.90
25092;DHT22;13082;52.374;4.946;2023-06-26T06:06:07;21.20;99.90
25092;DHT22;13082;52.374;4.946;2023-06-26T06:08:32;21.20;99.90
25092;DHT22;13082;52.374;4.946;2023-06-26T06:11:00;21.10;99.90
25092;DHT22;13082;52.374;4.946;2023-06-26T06:13:26;21.10;99.90
25092;DHT22;13082;52.374;4.946;2023-06-26T06:15:51;21.10;99.90
25092;DHT22;13082;52.374;4.946;2023-06-26T06:18:17;21.10;99.90
25092;DHT22;13082;52.374;4.946;2023-06-26T06:20:43;21.10;99.90
25092;DHT22;13082;52.374;4.946;2023-06-26T06:23:08;21.00;99.90
25092;DHT22;13082;52.374;4.946;2023-06-26T06:25:34;21.10;99.90
25092;DHT22;13082;52.374;4.946;2023-06-26T06:27:59;21.10;99.90
25092;DHT22;13082;52.374;4.946;2023-06-26T06:30:25;21.20;99.90
25092;DHT22;13082;52.374;4.946;2023-06-26T06:32:51;21.20;99.90
25092;DHT22;13082;52.374;4.946;2023-06-26T06:35:18;21.10;99.90
25092;DHT22;13082;52.374;4.946;2023-06-26T06:37:44;21.10;99.90
25092;DHT22;13082;52.374;4.946;2023-06-26T06:40:10;21.10;99.90
25092;DHT22;13082;52.374;4.946;2023-06-26T06:42:36;21.20;99.90
25092;DHT22;13082;52.374;4.946;2023-06-26T06:45:03;21.20;99.90
25092;DHT22;13082;52.374;4.946;2023-06-26T06:47:29;21.10;99.90
25092;DHT22;13082;52.374;4.946;2023-06-26T06:49:54;21.10;99.90
25092;DHT22;13082;52.374;4.946;2023-06-26T06:52:20;21.10;99.90
25092;DHT22;13082;52.374;4.946;2023-06-26T06:54:56;21.20;99.90
25092;DHT22;13082;52.374;4.946;2023-06-26T06:57:24;21.20;99.90
25092;DHT22;13082;52.374;4.946;2023-06-26T06:59:50;21.20;99.90
25092;DHT22;13082;52.374;4.946;2023-06-26T07:02:17;21.30;99.90
25092;DHT22;13082;52.374;4.946;2023-06-26T07:04:42;21.40;99.90
25092;DHT22;13082;52.374;4.946;2023-06-26T07:07:08;21.40;99.90
25092;DHT22;13082;52.374;4.946;2023-06-26T07:09:34;21.30;99.90
25092;DHT22;13082;52.374;4.946;2023-06-26T07:11:59;21.30;99.90
25092;DHT22;13082;52.374;4.946;2023-06-26T07:14:25;21.30;99.90
25092;DHT22;13082;52.374;4.946;2023-06-26T07:16:51;21.40;99.90
25092;DHT22;13082;52.374;4.946;2023-06-26T07:19:17;21.30;99.90
25092;DHT22;13082;52.374;4.946;2023-06-26T07:21:42;21.30;99.90
25092;DHT22;13082;52.374;4.946;2023-06-26T07:24:10;21.40;99.90
25092;DHT22;13082;52.374;4.946;2023-06-26T07:26:36;21.50;99.90
25092;DHT22;13082;52.374;4.946;2023-06-26T07:29:01;21.50;99.90
25092;DHT22;13082;52.374;4.946;2023-06-26T07:31:27;21.50;99.90
25092;DHT22;13082;52.374;4.946;2023-06-26T07:33:53;21.40;99.90
25092;DHT22;13082;52.374;4.946;2023-06-26T07:36:18;21.30;99.90
25092;DHT22;13082;52.374;4.946;2023-06-26T07:38:44;21.20;99.90
25092;DHT22;13082;52.374;4.946;2023-06-26T07:41:09;21.20;99.90
25092;DHT22;13082;52.374;4.946;2023-06-26T07:43:35;21.20;99.90
25092;DHT22;13082;52.374;4.946;2023-06-26T07:46:01;21.10;99.90
25092;DHT22;13082;52.374;4.946;2023-06-26T07:48:26;21.20;99.90
25092;DHT22;13082;52.374;4.946;2023-06-26T07:50:52;21.30;99.90
25092;DHT22;13082;52.374;4.946;2023-06-26T07:53:18;21.50;99.90
25092;DHT22;13082;52.374;4.946;2023-06-26T07:55:44;21.50;99.90
25092;DHT22;13082;52.374;4.946;2023-06-26T07:58:09;21.40;99.90
25092;DHT22;13082;52.374;4.946;2023-06-26T08:00:35;21.40;99.90
25092;DHT22;13082;52.374;4.946;2023-06-26T08:03:01;21.30;99.90
25092;DHT22;13082;52.374;4.946;2023-06-26T08:05:26;21.20;99.90
25092;DHT22;13082;52.374;4.946;2023-06-26T08:07:52;21.10;99.90
25092;DHT22;13082;52.374;4.946;2023-06-26T08:10:17;21.10;99.90
25092;DHT22;13082;52.374;4.946;2023-06-26T08:12:43;21.20;99.90
25092;DHT22;13082;52.374;4.946;2023-06-26T08:15:11;21.30;99.90
25092;DHT22;13082;52.374;4.946;2023-06-26T08:17:37;21.20;99.90
25092;DHT22;13082;52.374;4.946;2023-06-26T08:20:04;21.10;99.90
25092;DHT22;13082;52.374;4.946;2023-06-26T08:22:30;21.10;99.90
25092;DHT22;13082;52.374;4.946;2023-06-26T08:24:56;21.20;99.90
25092;DHT22;13082;52.374;4.946;2023-06-26T08:27:22;21.40;99.90
25092;DHT22;13082;52.374;4.946;2023-06-26T08:29:47;21.50;99.90
25092;DHT22;13082;52.374;4.946;2023-06-26T08:32:13;21.50;99.90
25092;DHT22;13082;52.374;4.946;2023-06-26T08:34:38;21.60;99.90
25092;DHT22;13082;52.374;4.946;2023-06-26T08:37:04;21.50;99.90
25092;DHT22;13082;52.374;4.946;2023-06-26T08:39:30;21.50;99.90
25092;DHT22;13082;52.374;4.946;2023-06-26T08:41:56;21.50;99.90
25092;DHT22;13082;52.374;4.946;2023-06-26T08:44:21;21.40;99.90
25092;DHT22;13082;52.374;4.946;2023-06-26T08:46:50;21.40;99.90
25092;DHT22;13082;52.374;4.946;2023-06-26T08:49:37;21.40;99.90
25092;DHT22;13082;52.374;4.946;2023-06-26T08:52:16;21.40;99.90
25092;DHT22;13082;52.374;4.946;2023-06-26T08:54:46;21.40;99.90
25092;DHT22;13082;52.374;4.946;2023-06-26T08:57:15;21.40;99.90
25092;DHT22;13082;52.374;4.946;2023-06-26T08:59:43;21.40;99.90
25092;DHT22;13082;52.374;4.946;2023-06-26T09:02:08;21.40;99.90
25092;DHT22;13082;52.374;4.946;2023-06-26T09:04:35;21.40;99.90
25092;DHT22;13082;52.374;4.946;2023-06-26T09:07:01;21.40;99.90
25092;DHT22;13082;52.374;4.946;2023-06-26T09:09:27;21.40;99.90
25092;DHT22;13082;52.374;4.946;2023-06-26T09:11:53;21.50;99.90
25092;DHT22;13082;52.374;4.946;2023-06-26T09:14:21;21.60;99.90
25092;DHT22;13082;52.374;4.946;2023-06-26T09:16:46;21.70;99.90
25092;DHT22;13082;52.374;4.946;2023-06-26T09:19:12;21.80;99.90
25092;DHT22;13082;52.374;4.946;2023-06-26T09:21:40;22.00;99.90
25092;DHT22;13082;52.374;4.946;2023-06-26T09:24:07;22.20;99.90
25092;DHT22;13082;52.374;4.946;2023-06-26T09:26:35;22.30;99.90
25092;DHT22;13082;52.374;4.946;2023-06-26T09:29:00;22.40;99.90
25092;DHT22;13082;52.374;4.946;2023-06-26T09:31:26;22.40;99.90
25092;DHT22;13082;52.374;4.946;2023-06-26T09:33:58;22.50;99.90
25092;DHT22;13082;52.374;4.946;2023-06-26T09:36:29;22.60;99.90
25092;DHT22;13082;52.374;4.946;2023-06-26T09:38:59;22.60;99.90
25092;DHT22;13082;52.374;4.946;2023-06-26T09:41:25;22.50;99.90
25092;DHT22;13082;52.374;4.946;2023-06-26T09:43:51;22.40;99.90
25092;DHT22;13082;52.374;4.946;2023-06-26T09:48:48;22.60;99.90
25092;DHT22;13082;52.374;4.946;2023-06-26T09:51:16;22.70;99.90
25092;DHT22;13082;52.374;4.946;2023-06-26T09:53:43;22.70;99.90
25092;DHT22;13082;52.374;4.946;2023-06-26T09:56:16;22.60;99.90
25092;DHT22;13082;52.374;4.946;2023-06-26T09:58:44;22.40;99.90
25092;DHT22;13082;52.374;4.946;2023-06-26T10:01:10;22.30;99.90
25092;DHT22;13082;52.374;4.946;2023-06-26T10:03:36;22.40;99.90
25092;DHT22;13082;52.374;4.946;2023-06-26T10:06:02;22.40;99.90
25092;DHT22;13082;52.374;4.946;2023-06-26T10:08:30;22.50;99.90
25092;DHT22;13082;52.374;4.946;2023-06-26T10:10:57;22.60;99.90
25092;DHT22;13082;52.374;4.946;2023-06-26T10:13:31;22.80;99.90
25092;DHT22;13082;52.374;4.946;2023-06-26T10:16:00;22.80;99.90
25092;DHT22;13082;52.374;4.946;2023-06-26T10:18:27;22.60;99.90
25092;DHT22;13082;52.374;4.946;2023-06-26T10:20:56;22.70;99.90
25092;DHT22;13082;52.374;4.946;2023-06-26T10:23:23;22.80;99.90
25092;DHT22;13082;52.374;4.946;2023-06-26T10:25:52;23.00;99.90
25092;DHT22;13082;52.374;4.946;2023-06-26T10:28:22;23.10;99.90
25092;DHT22;13082;52.374;4.946;2023-06-26T10:30:50;23.20;99.90
25092;DHT22;13082;52.374;4.946;2023-06-26T10:33:16;23.20;99.90
25092;DHT22;13082;52.374;4.946;2023-06-26T10:35:45;23.20;99.90
25092;DHT22;13082;52.374;4.946;2023-06-26T10:38:11;23.10;99.90
25092;DHT22;13082;52.374;4.946;2023-06-26T10:40:46;23.20;99.90
25092;DHT22;13082;52.374;4.946;2023-06-26T10:43:13;23.10;99.90
25092;DHT22;13082;52.374;4.946;2023-06-26T10:45:44;23.10;99.90
25092;DHT22;13082;52.374;4.946;2023-06-26T10:48:14;23.10;99.90
25092;DHT22;13082;52.374;4.946;2023-06-26T10:50:40;23.00;99.90
25092;DHT22;13082;52.374;4.946;2023-06-26T10:53:24;23.10;99.90
25092;DHT22;13082;52.374;4.946;2023-06-26T10:56:03;23.10;99.90
25092;DHT22;13082;52.374;4.946;2023-06-26T11:01:22;23.10;99.90
25092;DHT22;13082;52.374;4.946;2023-06-26T11:06:28;22.90;99.90
25092;DHT22;13082;52.374;4.946;2023-06-26T11:09:05;22.80;99.90
25092;DHT22;13082;52.374;4.946;2023-06-26T11:14:24;22.90;99.90
25092;DHT22;13082;52.374;4.946;2023-06-26T11:16:51;22.70;99.90
25092;DHT22;13082;52.374;4.946;2023-06-26T11:19:17;22.60;99.90
25092;DHT22;13082;52.374;4.946;2023-06-26T11:21:43;22.40;99.90
25092;DHT22;13082;52.374;4.946;2023-06-26T11:24:10;22.20;99.90
25092;DHT22;13082;52.374;4.946;2023-06-26T11:26:41;22.00;99.90
25092;DHT22;13082;52.374;4.946;2023-06-26T11:29:07;21.90;99.90
25092;DHT22;13082;52.374;4.946;2023-06-26T11:31:34;21.90;99.90
25092;DHT22;13082;52.374;4.946;2023-06-26T11:34:05;21.90;99.90
25092;DHT22;13082;52.374;4.946;2023-06-26T11:36:33;21.90;99.90
25092;DHT22;13082;52.374;4.946;2023-06-26T11:39:04;22.00;99.90
25092;DHT22;13082;52.374;4.946;2023-06-26T11:41:35;22.10;99.90
25092;DHT22;13082;52.374;4.946;2023-06-26T11:44:02;22.10;99.90
25092;DHT22;13082;52.374;4.946;2023-06-26T11:46:28;21.90;99.90
25092;DHT22;13082;52.374;4.946;2023-06-26T11:48:54;22.00;99.90
25092;DHT22;13082;52.374;4.946;2023-06-26T11:51:20;22.00;99.90
25092;DHT22;13082;52.374;4.946;2023-06-26T11:53:46;22.10;99.90
25092;DHT22;13082;52.374;4.946;2023-06-26T11:56:14;22.20;99.90
25092;DHT22;13082;52.374;4.946;2023-06-26T11:59:09;22.20;99.90
25092;DHT22;13082;52.374;4.946;2023-06-26T12:04:03;22.20;99.90
25092;DHT22;13082;52.374;4.946;2023-06-26T12:06:31;22.20;99.90
25092;DHT22;13082;52.374;4.946;2023-06-26T12:08:59;22.10;99.90
25092;DHT22;13082;52.374;4.946;2023-06-26T12:11:27;22.10;99.90
25092;DHT22;13082;52.374;4.946;2023-06-26T12:13:54;21.90;99.90
25092;DHT22;13082;52.374;4.946;2023-06-26T12:16:19;22.00;99.90
25092;DHT22;13082;52.374;4.946;2023-06-26T12:18:46;22.00;99.90
25092;DHT22;13082;52.374;4.946;2023-06-26T12:24:13;22.00;99.90
25092;DHT22;13082;52.374;4.946;2023-06-26T12:26:42;22.00;99.90
25092;DHT22;13082;52.374;4.946;2023-06-26T12:29:11;22.00;99.90
25092;DHT22;13082;52.374;4.946;2023-06-26T12:31:40;22.00;99.90
25092;DHT22;13082;52.374;4.946;2023-06-26T12:34:09;22.00;99.90
25092;DHT22;13082;52.374;4.946;2023-06-26T12:36:40;22.00;99.90
25092;DHT22;13082;52.374;4.946;2023-06-26T12:39:09;22.10;99.90
25092;DHT22;13082;52.374;4.946;2023-06-26T12:42:02;22.10;99.90
25092;DHT22;13082;52.374;4.946;2023-06-26T12:44:31;22.10;99.90
25092;DHT22;13082;52.374;4.946;2023-06-26T12:47:01;22.10;99.90
25092;DHT22;13082;52.374;4.946;2023-06-26T12:49:37;22.10;99.90
25092;DHT22;13082;52.374;4.946;2023-06-26T12:52:11;21.90;99.90
25092;DHT22;13082;52.374;4.946;2023-06-26T12:54:38;21.80;99.90
25092;DHT22;13082;52.374;4.946;2023-06-26T12:57:04;21.80;99.90
25092;DHT22;13082;52.374;4.946;2023-06-26T12:59:31;21.90;99.90
25092;DHT22;13082;52.374;4.946;2023-06-26T13:01:57;22.00;99.90
25092;DHT22;13082;52.374;4.946;2023-06-26T13:04:23;22.10;99.90
25092;DHT22;13082;52.374;4.946;2023-06-26T13:06:49;22.20;99.90
25092;DHT22;13082;52.374;4.946;2023-06-26T13:09:15;22.20;99.90
25092;DHT22;13082;52.374;4.946;2023-06-26T13:11:41;22.30;99.90
25092;DHT22;13082;52.374;4.946;2023-06-26T13:14:07;22.40;99.90
25092;DHT22;13082;52.374;4.946;2023-06-26T13:16:33;22.50;99.90
25092;DHT22;13082;52.374;4.946;2023-06-26T13:18:59;22.50;99.90
25092;DHT22;13082;52.374;4.946;2023-06-26T13:21:26;22.50;99.90
25092;DHT22;13082;52.374;4.946;2023-06-26T13:23:52;22.50;99.90
25092;DHT22;13082;52.374;4.946;2023-06-26T13:26:18;22.50;99.90
25092;DHT22;13082;52.374;4.946;2023-06-26T13:28:44;22.50;99.90
25092;DHT22;13082;52.374;4.946;2023-06-26T13:31:10;22.60;99.90
25092;DHT22;13082;52.374;4.946;2023-06-26T13:33:35;22.50;99.90
25092;DHT22;13082;52.374;4.946;2023-06-26T13:36:01;22.60;99.90
25092;DHT22;13082;52.374;4.946;2023-06-26T13:38:32;22.60;99.90
25092;DHT22;13082;52.374;4.946;2023-06-26T13:40:58;22.50;99.90
25092;DHT22;13082;52.374;4.946;2023-06-26T13:43:26;22.50;99.90
25092;DHT22;13082;52.374;4.946;2023-06-26T13:45:53;22.60;99.90
25092;DHT22;13082;52.374;4.946;2023-06-26T13:48:19;22.80;99.90
25092;DHT22;13082;52.374;4.946;2023-06-26T13:50:45;22.80;99.90
25092;DHT22;13082;52.374;4.946;2023-06-26T13:53:12;23.00;99.90
25092;DHT22;13082;52.374;4.946;2023-06-26T13:55:37;23.00;99.90
25092;DHT22;13082;52.374;4.946;2023-06-26T13:58:04;22.90;99.90
25092;DHT22;13082;52.374;4.946;2023-06-26T14:00:31;22.90;99.90
25092;DHT22;13082;52.374;4.946;2023-06-26T14:03:03;22.90;99.90
25092;DHT22;13082;52.374;4.946;2023-06-26T14:05:30;22.90;99.90
25092;DHT22;13082;52.374;4.946;2023-06-26T14:07:55;22.80;99.90
25092;DHT22;13082;52.374;4.946;2023-06-26T14:10:22;22.80;99.90
25092;DHT22;13082;52.374;4.946;2023-06-26T14:12:48;22.90;99.90
25092;DHT22;13082;52.374;4.946;2023-06-26T14:15:14;23.00;99.90
25092;DHT22;13082;52.374;4.946;2023-06-26T14:17:39;23.10;99.90
25092;DHT22;13082;52.374;4.946;2023-06-26T14:20:07;23.00;99.90
25092;DHT22;13082;52.374;4.946;2023-06-26T14:22:36;22.90;99.90
25092;DHT22;13082;52.374;4.946;2023-06-26T14:25:02;22.80;99.90
25092;DHT22;13082;52.374;4.946;2023-06-26T14:27:28;22.80;99.90
25092;DHT22;13082;52.374;4.946;2023-06-26T14:29:54;22.60;99.90
25092;DHT22;13082;52.374;4.946;2023-06-26T14:32:19;22.60;99.90
25092;DHT22;13082;52.374;4.946;2023-06-26T14:34:45;22.60;99.90
25092;DHT22;13082;52.374;4.946;2023-06-26T14:37:10;22.70;99.90
25092;DHT22;13082;52.374;4.946;2023-06-26T14:39:36;22.90;99.90
25092;DHT22;13082;52.374;4.946;2023-06-26T14:42:04;23.00;99.90
25092;DHT22;13082;52.374;4.946;2023-06-26T14:44:30;23.00;99.90
25092;DHT22;13082;52.374;4.946;2023-06-26T14:46:55;23.00;99.90
25092;DHT22;13082;52.374;4.946;2023-06-26T14:49:21;23.00;99.90
25092;DHT22;13082;52.374;4.946;2023-06-26T14:51:47;22.90;99.90
25092;DHT22;13082;52.374;4.946;2023-06-26T14:54:12;22.80;99.90
25092;DHT22;13082;52.374;4.946;2023-06-26T14:56:38;22.70;99.90
25092;DHT22;13082;52.374;4.946;2023-06-26T14:59:04;22.70;99.90
25092;DHT22;13082;52.374;4.946;2023-06-26T15:01:33;22.70;99.90
25092;DHT22;13082;52.374;4.946;2023-06-26T15:03:58;22.60;99.90
25092;DHT22;13082;52.374;4.946;2023-06-26T15:06:24;22.70;99.90
25092;DHT22;13082;52.374;4.946;2023-06-26T15:08:49;22.70;99.90
25092;DHT22;13082;52.374;4.946;2023-06-26T15:11:15;22.80;99.90
25092;DHT22;13082;52.374;4.946;2023-06-26T15:13:41;22.70;99.90
25092;DHT22;13082;52.374;4.946;2023-06-26T15:16:06;22.70;99.90
25092;DHT22;13082;52.374;4.946;2023-06-26T15:18:32;22.60;99.90
25092;DHT22;13082;52.374;4.946;2023-06-26T15:20:57;22.80;99.90
25092;DHT22;13082;52.374;4.946;2023-06-26T15:23:23;22.80;99.90
25092;DHT22;13082;52.374;4.946;2023-06-26T15:25:49;22.70;99.90
25092;DHT22;13082;52.374;4.946;2023-06-26T15:28:14;22.80;99.90
25092;DHT22;13082;52.374;4.946;2023-06-26T15:30:40;22.80;99.90
25092;DHT22;13082;52.374;4.946;2023-06-26T15:33:06;22.80;99.90
25092;DHT22;13082;52.374;4.946;2023-06-26T15:35:31;22.80;99.90
25092;DHT22;13082;52.374;4.946;2023-06-26T15:37:57;22.80;99.90
25092;DHT22;13082;52.374;4.946;2023-06-26T15:40:23;23.00;99.90
25092;DHT22;13082;52.374;4.946;2023-06-26T15:42:50;22.90;99.90
25092;DHT22;13082;52.374;4.946;2023-06-26T15:45:16;22.90;99.90
25092;DHT22;13082;52.374;4.946;2023-06-26T15:47:48;22.80;99.90
25092;DHT22;13082;52.374;4.946;2023-06-26T15:50:14;22.80;99.90